Time;durP1;ratioP1;P1;durP2;ratioP2;P2;SDS_P1;SDS_P2;PMS_P1;PMS_P2;Temp;Humidity;BMP_temperature;BMP_pressure;BME280_temperature;BME280_humidity;BME280_pressure;Samples;Min_cycle;Max_cycle;Signal;HPM_P1;HPM_P2
2023/05/01 00:02:00;;;;;;;8.47;7.77;;;;;;;6.27;100.00;99660.03;6136645;23;20256;-82
2023/05/01 00:04:27;;;;;;;8.97;8.17;;;;;;;6.23;100.00;99661.41;6111883;23;20249;-84
2023/05/01 00:06:54;;;;;;;8.90;8.00;;;;;;;6.20;100.00;99666.09;6136130;23;20174;-86
2023/05/01 00:09:21;;;;;;;8.63;7.93;;;;;;;6.15;100.00;99665.88;6136153;23;20181;-84
2023/05/01 00:11:47;;;;;;;8.90;8.10;;;;;;;6.16;100.00;99664.84;6111643;23;20276;-84
2023/05/01 00:14:14;;;;;;;9.53;8.60;;;;;;;6.15;100.00;99663.22;6112074;23;20174;-84
2023/05/01 00:16:41;;;;;;;8.87;8.13;;;;;;;6.16;100.00;99659.50;6136131;23;20173;-82
2023/05/01 00:19:08;;;;;;;9.23;8.33;;;;;;;6.06;100.00;99648.38;6161051;23;20166;-84
2023/05/01 00:21:35;;;;;;;9.40;8.60;;;;;;;5.98;100.00;99650.31;6160024;23;20173;-82
2023/05/01 00:24:01;;;;;;;9.13;8.33;;;;;;;5.87;100.00;99635.72;6141347;23;20235;-83
2023/05/01 00:26:30;;;;;;;8.80;8.00;;;;;;;5.80;100.00;99639.28;6136303;23;20170;-82
2023/05/01 00:28:57;;;;;;;9.27;8.37;;;;;;;5.86;100.00;99635.88;6137072;23;20174;-84
2023/05/01 00:31:24;;;;;;;9.33;8.43;;;;;;;5.83;100.00;99634.41;6135818;23;20174;-85
2023/05/01 00:33:53;;;;;;;9.43;8.53;;;;;;;5.74;100.00;99628.38;6160725;23;20174;-84
2023/05/01 00:36:19;;;;;;;9.40;8.50;;;;;;;5.78;100.00;99632.28;6185193;23;20162;-83
2023/05/01 00:38:46;;;;;;;9.00;8.20;;;;;;;5.74;100.00;99638.19;6160418;23;20162;-85
2023/05/01 00:41:13;;;;;;;8.20;7.40;;;;;;;5.71;100.00;99631.41;6136432;23;20262;-86
2023/05/01 00:43:40;;;;;;;8.57;7.77;;;;;;;5.66;100.00;99633.00;6160684;23;20170;-83
2023/05/01 00:46:07;;;;;;;9.20;8.40;;;;;;;5.67;100.00;99626.66;6160493;23;20181;-82
2023/05/01 00:48:34;;;;;;;8.77;7.87;;;;;;;5.64;100.00;99619.91;6160411;23;20210;-84
2023/05/01 00:51:03;;;;;;;8.83;7.80;;;;;;;5.56;100.00;99621.81;6160863;23;20225;-84
2023/05/01 00:53:32;;;;;;;9.73;8.57;;;;;;;5.55;100.00;99630.84;6184594;23;20198;-84
2023/05/01 00:55:59;;;;;;;8.27;7.67;;;;;;;5.52;100.00;99626.69;6160685;23;20294;-81
2023/05/01 00:58:26;;;;;;;8.97;8.17;;;;;;;5.54;100.00;99624.69;6135548;23;20207;-83
2023/05/01 01:00:54;;;;;;;9.70;8.80;;;;;;;5.51;100.00;99626.88;6135688;23;20181;-83
2023/05/01 01:03:20;;;;;;;9.30;8.40;;;;;;;5.51;100.00;99634.84;6136084;23;20185;-87
2023/05/01 01:05:52;;;;;;;9.73;8.73;;;;;;;5.48;100.00;99625.44;6160484;23;20162;-82
2023/05/01 01:08:26;;;;;;;8.93;8.13;;;;;;;5.48;100.00;99622.78;6160519;23;20168;-86
2023/05/01 01:11:20;;;;;;;8.30;7.57;;;;;;;5.52;100.00;99632.03;6135984;23;20162;-83
2023/05/01 01:14:05;;;;;;;9.27;8.30;;;;;;;5.60;100.00;99634.56;6160164;23;20209;-82
2023/05/01 01:16:45;;;;;;;9.27;8.37;;;;;;;5.62;100.00;99637.03;6160175;23;20182;-84
2023/05/01 01:19:39;;;;;;;9.43;8.53;;;;;;;5.59;100.00;99640.91;6160693;23;20174;-84
2023/05/01 01:22:10;;;;;;;8.70;7.90;;;;;;;5.56;100.00;99630.63;6160132;23;20225;-85
2023/05/01 01:24:52;;;;;;;9.27;8.20;;;;;;;5.45;100.00;99622.34;6160328;23;20225;-84
2023/05/01 01:27:30;;;;;;;9.17;8.30;;;;;;;5.43;100.00;99621.69;6185046;23;20155;-84
2023/05/01 01:30:21;;;;;;;8.33;7.63;;;;;;;5.40;100.00;99624.72;6160350;23;20170;-86
2023/05/01 01:33:16;;;;;;;7.93;7.23;;;;;;;5.36;100.00;99626.09;6160034;23;20707;-82
2023/05/01 01:35:52;;;;;;;8.93;8.13;;;;;;;5.35;100.00;99635.09;6135994;23;20688;-82
2023/05/01 01:38:22;;;;;;;8.40;7.70;;;;;;;5.30;100.00;99631.16;6160475;23;20240;-84
2023/05/01 01:41:00;;;;;;;9.23;8.33;;;;;;;5.29;100.00;99628.66;6136108;23;20499;-83
2023/05/01 01:43:30;;;;;;;9.00;8.20;;;;;;;5.29;100.00;99629.50;6160014;23;20154;-83
2023/05/01 01:46:01;;;;;;;9.03;8.23;;;;;;;5.29;100.00;99620.69;6135876;23;20154;-84
2023/05/01 01:48:35;;;;;;;8.70;7.70;;;;;;;5.22;100.00;99619.81;6160453;23;20170;-82
2023/05/01 01:51:08;;;;;;;8.23;7.43;;;;;;;5.14;100.00;99620.72;6135364;23;20213;-81
2023/05/01 01:53:36;;;;;;;8.10;7.17;;;;;;;5.15;100.00;99618.88;6135616;23;20206;-81
2023/05/01 01:56:05;;;;;;;8.10;7.40;;;;;;;5.04;100.00;99619.38;6160017;23;20177;-83
2023/05/01 01:58:34;;;;;;;8.37;7.57;;;;;;;4.99;100.00;99611.13;6159769;23;20166;-82
2023/05/01 02:01:02;;;;;;;8.33;7.53;;;;;;;5.00;100.00;99616.25;6159911;23;20630;-85
2023/05/01 02:03:30;;;;;;;8.67;7.77;;;;;;;4.93;100.00;99610.03;6134907;23;20166;-84
2023/05/01 02:06:00;;;;;;;8.67;7.83;;;;;;;4.97;100.00;99610.47;6160393;23;20249;-84
2023/05/01 02:08:29;;;;;;;8.83;7.40;;;;;;;4.96;100.00;99614.97;6159763;23;20623;-84
2023/05/01 02:10:58;;;;;;;8.03;7.33;;;;;;;4.96;100.00;99614.13;6135984;23;20632;-81
2023/05/01 02:13:29;;;;;;;8.27;7.57;;;;;;;4.98;100.00;99610.31;6136114;23;20718;-85
2023/05/01 02:16:01;;;;;;;8.17;7.37;;;;;;;4.96;100.00;99600.88;6135812;23;20182;-84
2023/05/01 02:18:30;;;;;;;7.87;7.17;;;;;;;4.94;100.00;99601.06;6135185;23;20180;-86
2023/05/01 02:20:58;;;;;;;8.03;7.33;;;;;;;4.91;100.00;99590.78;6159601;23;20261;-85
2023/05/01 02:23:29;;;;;;;8.10;7.30;;;;;;;4.84;100.00;99595.22;6159115;23;20166;-88
2023/05/01 02:25:59;;;;;;;8.17;7.37;;;;;;;4.79;100.00;99605.56;6135212;23;20172;-84
2023/05/01 02:28:28;;;;;;;8.40;7.33;;;;;;;4.72;100.00;99594.00;6110851;23;20166;-83
2023/05/01 02:30:56;;;;;;;8.40;7.60;;;;;;;4.70;100.00;99580.94;6134912;23;20201;-81
2023/05/01 02:33:22;;;;;;;8.60;7.80;;;;;;;4.69;100.00;99581.94;6134807;23;20201;-82
2023/05/01 02:35:49;;;;;;;8.33;7.53;;;;;;;4.67;100.00;99583.94;6110181;23;20262;-85
2023/05/01 02:38:17;;;;;;;8.33;7.53;;;;;;;4.65;100.00;99583.31;6134898;23;20167;-84
2023/05/01 02:40:49;;;;;;;8.30;7.50;;;;;;;4.63;100.00;99585.31;6134877;23;20171;-82
2023/05/01 02:43:19;;;;;;;7.93;7.23;;;;;;;4.64;100.00;99584.31;6110333;23;20170;-84
2023/05/01 02:45:46;;;;;;;8.23;7.43;;;;;;;4.56;100.00;99579.09;6110571;23;20167;-83
2023/05/01 02:48:17;;;;;;;8.23;7.43;;;;;;;4.56;100.00;99580.91;6134400;23;20178;-85
2023/05/01 02:50:45;;;;;;;8.90;7.40;;;;;;;4.59;100.00;99586.69;6159476;23;20174;-83
2023/05/01 02:53:12;;;;;;;8.20;7.40;;;;;;;4.53;100.00;99574.13;6109984;23;20210;-84
2023/05/01 02:55:47;;;;;;;8.63;7.20;;;;;;;4.54;100.00;99581.09;6136236;23;20170;-82
2023/05/01 02:58:15;;;;;;;8.20;7.40;;;;;;;4.54;100.00;99578.44;6134469;23;20174;-83
2023/05/01 03:00:43;;;;;;;8.83;7.40;;;;;;;4.46;100.00;99572.41;6110543;23;20181;-83
2023/05/01 03:03:10;;;;;;;8.17;7.37;;;;;;;4.50;100.00;99571.84;6110093;23;20173;-81
2023/05/01 03:05:38;;;;;;;8.20;7.40;;;;;;;4.44;100.00;99573.41;6134235;23;20194;-83
2023/05/01 03:08:05;;;;;;;8.47;7.37;;;;;;;4.40;100.00;99580.09;6110548;23;20174;-81
2023/05/01 03:10:33;;;;;;;7.60;6.90;;;;;;;4.47;100.00;99582.84;6110633;23;20217;-83
2023/05/01 03:13:00;;;;;;;7.83;7.03;;;;;;;4.45;100.00;99584.84;6109776;23;20202;-81
2023/05/01 03:15:26;;;;;;;7.70;6.93;;;;;;;4.53;100.00;99584.75;6110152;23;20202;-83
2023/05/01 03:17:53;;;;;;;7.60;6.90;;;;;;;4.48;100.00;99584.47;6134615;23;20186;-85
2023/05/01 03:20:20;;;;;;;7.33;6.73;;;;;;;4.42;100.00;99579.91;6134216;23;20604;-84
2023/05/01 03:22:47;;;;;;;8.00;7.27;;;;;;;4.37;100.00;99574.31;6134107;23;20202;-84
2023/05/01 03:25:14;;;;;;;7.37;6.67;;;;;;;4.37;100.00;99583.09;6129657;23;20230;-82
2023/05/01 03:27:41;;;;;;;7.67;6.87;;;;;;;4.36;100.00;99576.16;6134329;23;20174;-80
2023/05/01 03:30:09;;;;;;;8.30;7.50;;;;;;;4.34;100.00;99575.50;6134677;23;20221;-84
2023/05/01 03:32:39;;;;;;;8.40;7.60;;;;;;;4.38;100.00;99578.63;6182988;23;20188;-84
2023/05/01 03:35:12;;;;;;;8.87;7.20;;;;;;;4.37;100.00;99582.28;6159607;23;20168;-82
2023/05/01 03:37:39;;;;;;;7.90;7.20;;;;;;;4.40;100.00;99573.94;6183466;23;20201;-82
2023/05/01 03:40:06;;;;;;;8.27;7.50;;;;;;;4.42;100.00;99571.94;6159005;23;20181;-82
2023/05/01 03:43:08;;;;;;;8.03;7.23;;;;;;;4.47;100.00;99576.72;6077704;23;20176;-84
2023/05/01 03:45:35;;;;;;;8.07;7.27;;;;;;;4.52;100.00;99575.16;6134709;23;20178;-82
2023/05/01 03:48:02;;;;;;;7.77;7.07;;;;;;;4.56;100.00;99570.31;6159039;23;20166;-84
2023/05/01 03:50:30;;;;;;;7.60;6.90;;;;;;;4.62;100.00;99565.06;6158956;23;20240;-83
2023/05/01 03:52:57;;;;;;;7.63;6.93;;;;;;;4.80;100.00;99573.53;6158462;23;20233;-81
2023/05/01 03:55:24;;;;;;;7.27;6.60;;;;;;;4.96;100.00;99582.28;6183486;23;20164;-83
2023/05/01 03:57:51;;;;;;;7.53;6.83;;;;;;;5.06;100.00;99582.81;6158084;23;20178;-81
2023/05/01 04:00:19;;;;;;;6.87;6.27;;;;;;;5.06;100.00;99570.38;6158732;23;20197;-82
2023/05/01 04:02:46;;;;;;;7.20;6.60;;;;;;;5.13;100.00;99570.47;6158245;23;20182;-81
2023/05/01 04:05:18;;;;;;;6.90;6.30;;;;;;;5.17;100.00;99577.03;6136011;23;20261;-83
2023/05/01 04:07:49;;;;;;;7.40;6.70;;;;;;;5.22;100.00;99580.78;6159322;23;20242;-82
2023/05/01 04:10:16;;;;;;;7.40;6.70;;;;;;;5.25;100.00;99583.06;6158118;23;20245;-83
2023/05/01 04:12:51;;;;;;;7.37;6.67;;;;;;;5.26;100.00;99570.63;6160346;23;20182;-81
2023/05/01 04:15:17;;;;;;;6.97;6.37;;;;;;;5.30;100.00;99571.88;6159049;23;20254;-82
2023/05/01 04:17:45;;;;;;;7.30;6.57;;;;;;;5.35;100.00;99563.34;6134180;23;20233;-86
2023/05/01 04:20:11;;;;;;;7.53;6.83;;;;;;;5.39;100.00;99562.78;6134544;23;20684;-84
2023/05/01 04:22:39;;;;;;;6.67;6.07;;;;;;;5.44;100.00;99560.41;6134237;23;20170;-83
2023/05/01 04:25:07;;;;;;;7.13;6.53;;;;;;;5.50;100.00;99558.81;6158909;23;20233;-82
2023/05/01 04:27:34;;;;;;;7.23;6.53;;;;;;;5.58;100.00;99566.66;6158395;23;20203;-81
2023/05/01 04:30:01;;;;;;;7.33;6.50;;;;;;;5.70;100.00;99565.97;6159037;23;20170;-83
2023/05/01 04:32:29;;;;;;;7.77;7.07;;;;;;;5.91;100.00;99573.16;6134605;23;20201;-83
2023/05/01 04:34:56;;;;;;;7.30;6.70;;;;;;;6.13;100.00;99572.13;6158899;23;20198;-83
2023/05/01 04:37:23;;;;;;;7.40;6.70;;;;;;;6.36;100.00;99571.06;6134427;23;20644;-83
2023/05/01 04:39:50;;;;;;;7.83;6.90;;;;;;;6.56;100.00;99570.19;6134462;23;20274;-83
2023/05/01 04:42:19;;;;;;;7.27;6.43;;;;;;;6.78;100.00;99570.91;6158900;23;20179;-82
2023/05/01 04:44:46;;;;;;;7.30;6.30;;;;;;;6.97;100.00;99574.72;6158673;23;20197;-87
2023/05/01 04:47:13;;;;;;;7.10;6.47;;;;;;;7.17;100.00;99572.97;6160886;23;20226;-84
2023/05/01 04:49:40;;;;;;;6.80;6.20;;;;;;;7.36;100.00;99571.38;6135951;23;20256;-83
2023/05/01 04:52:06;;;;;;;6.57;6.03;;;;;;;7.56;100.00;99574.13;6160572;23;20174;-83
2023/05/01 04:54:53;;;;;;;6.43;5.83;;;;;;;7.74;100.00;99571.69;6163897;23;20173;-84
2023/05/01 04:57:22;;;;;;;7.30;5.93;;;;;;;7.85;100.00;99574.56;6136975;23;20178;-83
2023/05/01 04:59:49;;;;;;;6.43;5.83;;;;;;;7.93;100.00;99570.91;6135616;23;20170;-83
2023/05/01 05:02:16;;;;;;;6.00;5.50;;;;;;;8.08;100.00;99581.34;6160417;23;20173;-83
2023/05/01 05:04:42;;;;;;;7.00;6.30;;;;;;;8.20;100.00;99571.72;6160191;23;20179;-82
2023/05/01 05:07:09;;;;;;;6.70;6.00;;;;;;;8.37;100.00;99571.13;6159870;23;20174;-84
2023/05/01 05:09:59;;;;;;;6.47;5.83;;;;;;;8.55;100.00;99575.84;6174222;23;20613;-84
2023/05/01 05:12:26;;;;;;;8.00;6.30;;;;;;;8.74;100.00;99576.81;6135663;23;20634;-84
2023/05/01 05:14:53;;;;;;;6.80;5.93;;;;;;;8.92;100.00;99571.63;6160001;23;20170;-84
2023/05/01 05:17:20;;;;;;;6.20;5.60;;;;;;;9.13;100.00;99582.06;6135814;23;20171;-85
2023/05/01 05:19:47;;;;;;;6.33;5.83;;;;;;;9.31;100.00;99575.19;6134949;23;20174;-86
2023/05/01 05:22:14;;;;;;;7.67;6.87;;;;;;;9.48;100.00;99576.34;6135554;23;20250;-85
2023/05/01 05:25:03;;;;;;;5.97;5.40;;;;;;;9.70;100.00;99578.47;6163925;23;20208;-87
2023/05/01 05:27:35;;;;;;;7.03;5.87;;;;;;;9.90;100.00;99574.84;6160107;23;20220;-85
2023/05/01 05:30:06;;;;;;;5.97;5.37;;;;;;;9.99;100.00;99585.09;6159766;23;20331;-87
2023/05/01 05:32:34;;;;;;;6.40;5.30;;;;;;;10.14;100.00;99580.25;6159865;23;20194;-85
2023/05/01 05:35:01;;;;;;;5.80;5.30;;;;;;;10.29;100.00;99573.78;6159335;23;20176;-85
2023/05/01 05:37:28;;;;;;;5.67;5.17;;;;;;;10.41;100.00;99567.47;6159502;23;20198;-85
2023/05/01 05:39:55;;;;;;;5.57;5.07;;;;;;;10.62;100.00;99573.47;6159544;23;20166;-85
2023/05/01 05:42:23;;;;;;;5.50;4.83;;;;;;;10.77;100.00;99577.44;6159091;23;20253;-86
2023/05/01 05:44:49;;;;;;;5.73;5.07;;;;;;;10.91;100.00;99575.44;6159414;23;20197;-84
2023/05/01 05:47:16;;;;;;;5.80;5.23;;;;;;;11.05;100.00;99576.94;6159359;23;20174;-85
2023/05/01 05:49:43;;;;;;;6.53;5.20;;;;;;;11.17;100.00;99572.47;6134432;23;20629;-85
2023/05/01 05:52:09;;;;;;;5.50;5.00;;;;;;;11.32;100.00;99569.38;6158932;23;20170;-85
2023/05/01 05:54:37;;;;;;;5.53;4.90;;;;;;;11.45;100.00;99570.03;6135116;23;20248;-85
2023/05/01 05:57:04;;;;;;;6.37;4.77;;;;;;;11.57;100.00;99570.06;6158409;23;20225;-83
2023/05/01 05:59:32;;;;;;;5.90;5.10;;;;;;;11.71;100.00;99571.53;6134978;23;20171;-86
2023/05/01 06:01:59;;;;;;;5.80;5.27;;;;;;;11.80;100.00;99566.72;6158649;23;20224;-84
2023/05/01 06:04:26;;;;;;;5.47;4.93;;;;;;;11.93;100.00;99568.38;6159110;23;20170;-84
2023/05/01 06:06:53;;;;;;;6.57;5.27;;;;;;;11.97;100.00;99566.84;6159439;23;20166;-86
2023/05/01 06:09:20;;;;;;;5.40;4.90;;;;;;;12.22;100.00;99575.56;6159015;23;20644;-84
2023/05/01 06:11:47;;;;;;;7.17;5.37;;;;;;;12.47;100.00;99572.66;6159062;23;20225;-84
2023/05/01 06:14:15;;;;;;;7.30;5.40;;;;;;;12.65;100.00;99565.28;6158459;23;20195;-85
2023/05/01 06:16:42;;;;;;;7.73;5.33;;;;;;;12.86;100.00;99571.94;6158696;23;20224;-86
2023/05/01 06:19:11;;;;;;;5.37;4.87;;;;;;;13.11;100.00;99572.50;6182932;23;20186;-84
2023/05/01 06:21:38;;;;;;;4.90;4.43;;;;;;;13.34;100.00;99570.84;6158356;23;20175;-84
2023/05/01 06:24:05;;;;;;;5.83;4.57;;;;;;;13.42;100.00;99573.97;6182281;23;20923;-84
2023/05/01 06:26:40;;;;;;;5.87;5.23;;;;;;;13.67;97.68;99568.22;6137629;23;20167;-83
2023/05/01 06:29:07;;;;;;;6.30;5.20;;;;;;;13.92;97.34;99568.69;6181860;23;20204;-83
2023/05/01 06:31:34;;;;;;;5.83;5.23;;;;;;;14.04;96.82;99572.13;6158372;23;20195;-84
2023/05/01 06:34:01;;;;;;;6.87;5.57;;;;;;;14.09;94.35;99576.81;6182636;23;20182;-84
2023/05/01 06:36:33;;;;;;;6.27;5.20;;;;;;;13.97;93.39;99567.97;6159579;23;20624;-83
2023/05/01 06:39:00;;;;;;;5.43;4.67;;;;;;;14.29;92.08;99571.75;6182458;23;20229;-84
2023/05/01 06:41:29;;;;;;;5.23;4.73;;;;;;;14.58;89.63;99572.50;6158587;23;20172;-84
2023/05/01 06:43:57;;;;;;;7.33;5.47;;;;;;;14.69;89.26;99571.59;6183970;23;20175;-83
2023/05/01 06:46:25;;;;;;;6.33;5.37;;;;;;;14.75;88.09;99570.59;6183898;23;20673;-85
2023/05/01 06:48:52;;;;;;;5.03;4.63;;;;;;;14.93;87.38;99567.59;6158201;23;20165;-84
2023/05/01 06:51:18;;;;;;;7.03;5.10;;;;;;;15.05;86.05;99561.28;6158060;23;20176;-84
2023/05/01 06:53:45;;;;;;;5.20;4.70;;;;;;;15.01;84.13;99563.69;6133283;23;20201;-84
2023/05/01 06:56:12;;;;;;;6.87;5.20;;;;;;;15.09;83.72;99557.00;6109447;23;20222;-84
2023/05/01 06:58:38;;;;;;;6.23;4.97;;;;;;;15.16;83.28;99566.56;6157786;23;20180;-83
2023/05/01 07:01:06;;;;;;;5.60;4.90;;;;;;;15.25;82.69;99566.94;6158054;23;20173;-83
2023/05/01 07:03:33;;;;;;;5.17;4.77;;;;;;;15.38;82.31;99566.56;6157798;23;20178;-83
2023/05/01 07:06:00;;;;;;;5.47;4.93;;;;;;;15.39;82.17;99568.19;6157817;23;20192;-83
2023/05/01 07:08:27;;;;;;;5.33;4.83;;;;;;;15.38;82.17;99567.38;6157814;23;20171;-83
2023/05/01 07:10:53;;;;;;;7.87;5.27;;;;;;;15.24;82.48;99568.81;6182450;23;20184;-84
2023/05/01 07:13:20;;;;;;;9.43;5.37;;;;;;;15.42;83.21;99571.22;6157595;23;20640;-84
2023/05/01 07:15:47;;;;;;;7.53;5.10;;;;;;;15.43;83.34;99566.63;6133532;23;20259;-84
2023/05/01 07:18:15;;;;;;;5.70;5.07;;;;;;;15.50;84.09;99553.72;6133093;23;20173;-83
2023/05/01 07:20:42;;;;;;;5.83;5.30;;;;;;;15.48;84.84;99560.47;6182871;23;20237;-83
2023/05/01 07:23:09;;;;;;;6.03;5.30;;;;;;;15.40;85.11;99554.44;6133508;23;20176;-84
2023/05/01 07:25:43;;;;;;;6.13;5.40;;;;;;;15.34;86.32;99560.03;6157869;23;20747;-83
2023/05/01 07:28:10;;;;;;;6.00;5.40;;;;;;;15.36;85.88;99550.59;6159272;23;20166;-84
2023/05/01 07:30:36;;;;;;;5.90;5.40;;;;;;;15.57;86.20;99553.56;6182360;23;20601;-84
2023/05/01 07:33:04;;;;;;;5.90;5.27;;;;;;;15.71;85.72;99549.41;6157365;23;20173;-84
2023/05/01 07:35:31;;;;;;;6.20;5.60;;;;;;;15.86;85.39;99553.06;6182346;23;20158;-83
2023/05/01 07:37:58;;;;;;;6.83;5.37;;;;;;;15.75;84.91;99545.13;6182496;23;20253;-84
2023/05/01 07:40:25;;;;;;;6.37;5.77;;;;;;;15.96;86.20;99551.53;6157393;23;20177;-84
2023/05/01 07:42:52;;;;;;;6.00;5.43;;;;;;;16.08;85.89;99554.88;6157387;23;20186;-84
2023/05/01 07:45:20;;;;;;;5.93;5.13;;;;;;;16.19;87.25;99543.88;6182205;23;20167;-84
2023/05/01 07:47:46;;;;;;;5.80;5.30;;;;;;;16.34;89.26;99543.19;6157293;23;20249;-84
2023/05/01 07:50:13;;;;;;;6.73;5.50;;;;;;;16.40;85.64;99535.94;6133557;23;20178;-84
2023/05/01 07:52:40;;;;;;;6.33;5.70;;;;;;;16.67;85.22;99534.00;6157235;23;20201;-85
2023/05/01 07:55:07;;;;;;;5.90;5.40;;;;;;;16.85;83.25;99528.13;6157552;23;20588;-83
2023/05/01 07:57:35;;;;;;;6.13;5.20;;;;;;;17.00;81.58;99536.34;6157409;23;20174;-83
2023/05/01 08:00:01;;;;;;;6.37;5.40;;;;;;;16.97;80.16;99526.06;6157386;23;20225;-84
2023/05/01 08:02:39;;;;;;;5.90;5.40;;;;;;;17.18;78.56;99533.16;6159640;23;20169;-83
2023/05/01 08:05:07;;;;;;;6.10;4.73;;;;;;;17.28;78.28;99529.69;6157852;23;20174;-84
2023/05/01 08:07:33;;;;;;;5.50;4.57;;;;;;;17.43;77.72;99531.63;6157640;23;20158;-83
2023/05/01 08:10:00;;;;;;;5.57;5.00;;;;;;;17.68;76.47;99533.63;6157890;23;20162;-84
2023/05/01 08:12:28;;;;;;;5.93;4.90;;;;;;;17.89;75.79;99533.38;6182342;23;20236;-83
2023/05/01 08:14:55;;;;;;;4.20;3.80;;;;;;;18.09;74.05;99520.94;6183517;23;20209;-83
2023/05/01 08:17:21;;;;;;;5.40;3.90;;;;;;;18.41;71.29;99526.88;6157673;23;20177;-83
2023/05/01 08:19:49;;;;;;;4.10;3.70;;;;;;;18.65;69.83;99522.53;6157191;23;20194;-83
2023/05/01 08:22:15;;;;;;;5.03;3.97;;;;;;;18.80;68.74;99513.53;6159503;23;20166;-83
2023/05/01 08:24:42;;;;;;;6.10;3.90;;;;;;;18.86;68.27;99517.84;6184049;23;20256;-84
2023/05/01 08:27:09;;;;;;;3.90;3.50;;;;;;;18.83;68.05;99513.78;6159951;23;20262;-85
2023/05/01 08:29:36;;;;;;;4.50;3.30;;;;;;;18.89;67.92;99506.44;6135215;23;20177;-85
2023/05/01 08:32:02;;;;;;;3.97;3.40;;;;;;;18.91;67.52;99512.41;6135114;23;20170;-84
2023/05/01 08:34:29;;;;;;;4.60;3.60;;;;;;;18.78;65.75;99500.22;6135067;23;20277;-84
2023/05/01 08:36:58;;;;;;;3.73;3.10;;;;;;;19.01;65.74;99506.13;6159645;23;20261;-84
2023/05/01 08:39:25;;;;;;;4.53;3.57;;;;;;;19.02;66.12;99500.44;6159569;23;20224;-84
2023/05/01 08:41:51;;;;;;;4.10;3.70;;;;;;;18.90;65.52;99503.44;6159962;23;21022;-85
2023/05/01 08:44:19;;;;;;;4.37;3.30;;;;;;;18.99;67.13;99503.69;6135440;23;20197;-83
2023/05/01 08:46:59;;;;;;;4.77;3.43;;;;;;;18.94;65.57;99503.72;6160008;23;20178;-85
2023/05/01 08:49:26;;;;;;;4.17;3.40;;;;;;;19.00;64.80;99494.44;6184830;23;20231;-85
2023/05/01 08:51:55;;;;;;;5.23;3.87;;;;;;;19.09;65.20;99497.41;6160016;23;20167;-84
2023/05/01 08:54:23;;;;;;;3.70;3.23;;;;;;;18.88;64.26;99494.78;6159865;23;20225;-85
2023/05/01 08:56:50;;;;;;;3.70;3.30;;;;;;;18.95;65.79;99485.50;6159250;23;20249;-85
2023/05/01 08:59:18;;;;;;;3.93;2.90;;;;;;;19.00;64.30;99480.06;6135374;23;20621;-84
2023/05/01 09:01:46;;;;;;;3.90;3.13;;;;;;;19.08;64.16;99491.19;6135853;23;20180;-84
2023/05/01 09:04:13;;;;;;;4.03;3.10;;;;;;;19.12;64.13;99491.44;6159640;23;20172;-85
2023/05/01 09:06:40;;;;;;;4.93;3.03;;;;;;;19.03;64.66;99487.66;6159460;23;20197;-85
2023/05/01 09:09:07;;;;;;;4.70;3.00;;;;;;;19.07;64.34;99483.28;6159302;23;20159;-84
2023/05/01 09:11:35;;;;;;;3.80;3.20;;;;;;;19.24;64.39;99475.59;6134847;23;20170;-84
2023/05/01 09:14:04;;;;;;;4.13;3.13;;;;;;;19.27;64.92;99488.66;6159399;23;20500;-84
2023/05/01 09:16:31;;;;;;;3.47;3.17;;;;;;;19.35;64.48;99475.28;6159744;23;20164;-84
2023/05/01 09:18:58;;;;;;;3.87;3.40;;;;;;;19.42;63.30;99485.00;6159692;23;20400;-84
2023/05/01 09:21:28;;;;;;;3.50;2.87;;;;;;;19.56;62.81;99475.16;6134755;23;20258;-85
2023/05/01 09:23:55;;;;;;;3.60;2.97;;;;;;;19.65;63.53;99482.44;6134252;23;20254;-85
2023/05/01 09:26:21;;;;;;;4.13;2.87;;;;;;;19.87;63.04;99468.44;6157641;23;20200;-84
2023/05/01 09:28:50;;;;;;;4.17;2.70;;;;;;;20.02;62.29;99475.63;6133218;23;20171;-84
2023/05/01 09:31:21;;;;;;;4.43;3.13;;;;;;;20.05;62.05;99459.56;6133577;23;20178;-84
2023/05/01 09:33:53;;;;;;;3.67;3.10;;;;;;;20.00;60.59;99456.09;6182021;23;20182;-84
2023/05/01 09:36:21;;;;;;;3.80;3.50;;;;;;;20.15;61.22;99469.56;6157881;23;20181;-84
2023/05/01 09:38:48;;;;;;;4.10;2.83;;;;;;;20.09;60.53;99470.69;6133240;23;20585;-84
2023/05/01 09:41:15;;;;;;;5.60;3.40;;;;;;;20.08;59.75;99456.28;6133115;23;20178;-84
2023/05/01 09:43:49;;;;;;;4.00;3.00;;;;;;;20.30;60.40;99463.13;6157855;23;20621;-84
2023/05/01 09:46:16;;;;;;;2.93;2.73;;;;;;;20.35;59.67;99472.09;6157399;23;20177;-84
2023/05/01 09:48:53;;;;;;;4.20;3.20;;;;;;;20.50;59.82;99462.97;6132852;23;20243;-84
2023/05/01 09:51:21;;;;;;;3.47;2.77;;;;;;;20.64;59.69;99461.19;6182351;23;20220;-84
2023/05/01 09:53:48;;;;;;;4.17;2.90;;;;;;;20.65;58.86;99454.63;6131312;23;20771;-84
2023/05/01 09:56:16;;;;;;;4.37;3.10;;;;;;;20.71;59.93;99449.97;6155297;23;20208;-84
2023/05/01 09:58:43;;;;;;;3.80;3.07;;;;;;;20.91;59.59;99447.78;6157056;23;20164;-85
2023/05/01 10:01:10;;;;;;;4.63;3.27;;;;;;;20.94;60.55;99454.56;6133260;23;20181;-85
2023/05/01 10:03:36;;;;;;;3.33;2.90;;;;;;;21.06;59.57;99455.75;6157763;23;20171;-85
2023/05/01 10:06:04;;;;;;;4.17;2.83;;;;;;;21.07;58.88;99443.78;6133308;23;20169;-85
2023/05/01 10:08:44;;;;;;;3.90;3.60;;;;;;;20.97;60.01;99443.91;6157455;23;20168;-84
2023/05/01 10:11:11;;;;;;;4.17;2.93;;;;;;;21.08;58.28;99439.13;6157769;23;20278;-85
2023/05/01 10:13:38;;;;;;;3.27;2.97;;;;;;;21.00;58.30;99443.31;6157032;23;20228;-85
2023/05/01 10:16:07;;;;;;;3.63;3.10;;;;;;;20.96;58.56;99430.56;6132721;23;20187;-84
2023/05/01 10:18:34;;;;;;;3.10;2.80;;;;;;;21.15;59.90;99438.78;6158302;23;20198;-84
2023/05/01 10:21:02;;;;;;;3.10;2.90;;;;;;;21.13;58.51;99433.66;6133282;23;20237;-84
2023/05/01 10:23:29;;;;;;;3.17;2.90;;;;;;;21.13;59.14;99432.81;6080762;23;1212227;-84
2023/05/01 10:25:57;;;;;;;3.47;3.17;;;;;;;21.27;58.32;99429.09;6110025;23;20187;-84
2023/05/01 10:28:27;;;;;;;3.30;3.00;;;;;;;21.13;57.75;99428.22;6110297;23;20178;-85
2023/05/01 10:30:55;;;;;;;4.00;2.93;;;;;;;21.22;57.99;99421.00;6135202;23;20638;-85
2023/05/01 10:33:22;;;;;;;3.43;3.07;;;;;;;21.29;57.97;99436.97;6136339;23;20227;-85
2023/05/01 10:35:55;;;;;;;3.20;2.90;;;;;;;20.97;57.36;99419.38;6108150;23;20241;-84
2023/05/01 10:38:25;;;;;;;3.00;2.80;;;;;;;21.09;58.07;99433.38;6108729;23;20230;-85
2023/05/01 10:40:52;;;;;;;2.90;2.70;;;;;;;21.27;58.67;99428.28;6133390;23;20182;-85
2023/05/01 10:43:24;;;;;;;3.10;2.80;;;;;;;21.35;58.38;99428.44;6109047;23;20205;-84
2023/05/01 10:45:52;;;;;;;2.90;2.70;;;;;;;21.39;58.24;99412.28;6158714;23;20169;-84
2023/05/01 10:48:37;;;;;;;3.20;3.00;;;;;;;21.34;58.14;99409.63;6109387;23;20174;-84
2023/05/01 10:51:24;;;;;;;4.00;3.37;;;;;;;21.30;60.48;99412.16;6134239;23;20183;-85
2023/05/01 10:54:12;;;;;;;2.90;2.67;;;;;;;21.48;57.90;99405.06;6110641;23;20184;-84
2023/05/01 10:56:41;;;;;;;6.07;5.57;;;;;;;21.38;59.07;99410.66;6134120;23;20186;-85
2023/05/01 10:59:09;;;;;;;3.93;3.10;;;;;;;21.40;58.30;99403.00;6109857;23;20204;-84
2023/05/01 11:01:36;;;;;;;3.83;3.53;;;;;;;21.53;60.10;99405.81;6134167;23;20180;-84
2023/05/01 11:04:23;;;;;;;3.40;3.10;;;;;;;21.65;59.96;99410.00;6133558;23;20658;-85
2023/05/01 11:07:09;;;;;;;2.70;2.50;;;;;;;21.93;57.40;99398.06;6132274;23;20175;-84
2023/05/01 11:09:39;;;;;;;3.37;3.03;;;;;;;22.14;57.55;99393.88;6134032;23;20180;-84
2023/05/01 11:12:08;;;;;;;3.60;3.30;;;;;;;22.48;58.81;99390.78;6133772;23;20166;-85
2023/05/01 11:14:53;;;;;;;3.70;3.40;;;;;;;22.72;56.05;99379.69;6109572;23;20196;-84
2023/05/01 11:17:38;;;;;;;3.67;3.30;;;;;;;23.03;56.48;99380.63;6157765;23;20181;-84
2023/05/01 11:20:10;;;;;;;3.00;2.53;;;;;;;23.36;55.86;99377.69;6158146;23;20170;-84
2023/05/01 11:22:41;;;;;;;4.40;2.67;;;;;;;23.30;54.72;99377.00;6133497;23;20176;-84
2023/05/01 11:25:26;;;;;;;3.10;2.90;;;;;;;23.10;54.41;99372.00;6133742;23;20238;-84
2023/05/01 11:27:55;;;;;;;3.00;2.63;;;;;;;23.13;55.08;99371.41;6133223;23;20167;-84
2023/05/01 11:30:22;;;;;;;2.78;2.50;;;;;;;23.00;55.01;99370.31;6133543;23;20181;-85
2023/05/01 11:32:49;;;;;;;2.88;2.42;;;;;;;23.08;54.40;99360.56;6133410;23;20174;-84
2023/05/01 11:35:17;;;;;;;2.92;2.70;;;;;;;22.87;54.33;99371.13;6133480;23;20264;-85
2023/05/01 11:37:45;;;;;;;3.20;2.90;;;;;;;22.80;54.34;99359.84;6157740;23;20198;-83
2023/05/01 11:40:44;;;;;;;3.13;2.55;;;;;;;22.68;56.30;99364.97;6156798;23;20217;-82
2023/05/01 11:43:11;;;;;;;3.13;2.67;;;;;;;22.92;55.30;99365.56;6085220;23;20201;-82